createdAt,value
2023-03-20T00:00:01.219Z,99.99
2023-03-20T00:01:01.178Z,99.99
2023-03-20T00:02:01.180Z,99.99
2023-03-20T00:03:01.200Z,99.99
2023-03-20T00:04:01.153Z,99.99
2023-03-20T00:05:09.881Z,99.99
2023-03-20T00:06:01.097Z,99.99
2023-03-20T00:07:00.981Z,99.99
2023-03-20T00:08:00.948Z,99.99
2023-03-20T00:09:07.190Z,99.99
2023-03-20T00:10:02.907Z,99.99
2023-03-20T00:11:00.839Z,99.99
2023-03-20T00:12:00.828Z,99.99
2023-03-20T00:13:00.782Z,99.99
2023-03-20T00:14:00.765Z,99.99
2023-03-20T00:15:00.744Z,99.99
2023-03-20T00:16:00.785Z,99.99
2023-03-20T00:17:00.652Z,99.99
2023-03-20T00:18:00.613Z,99.99
2023-03-20T00:19:00.600Z,99.99
2023-03-20T00:20:00.540Z,99.99
2023-03-20T00:21:00.510Z,99.99
2023-03-20T00:22:00.538Z,99.99
2023-03-20T00:23:00.460Z,99.99
2023-03-20T00:24:00.412Z,99.99
2023-03-20T00:25:00.383Z,99.99
2023-03-20T00:26:00.346Z,99.99
2023-03-20T00:27:00.369Z,99.99
2023-03-20T00:28:00.285Z,99.99
2023-03-20T00:29:00.261Z,99.99
2023-03-20T00:30:00.201Z,99.99
2023-03-20T00:31:00.226Z,99.99
2023-03-20T00:32:00.138Z,99.99
2023-03-20T00:33:00.186Z,99.99
2023-03-20T00:34:00.091Z,99.99
2023-03-20T00:35:00.056Z,99.99
2023-03-20T00:36:00.035Z,99.99
2023-03-20T00:37:00.000Z,99.99
2023-03-20T00:38:00.003Z,99.99
2023-03-20T00:38:59.899Z,99.99
2023-03-20T00:39:59.873Z,99.99
2023-03-20T00:40:59.847Z,99.99
2023-03-20T00:41:59.832Z,99.99
2023-03-20T00:42:59.827Z,99.99
2023-03-20T00:43:59.723Z,99.99
2023-03-20T00:44:59.733Z,99.99
2023-03-20T00:45:59.672Z,99.99
2023-03-20T00:46:59.731Z,99.99
2023-03-20T00:47:59.695Z,99.99
2023-03-20T00:48:59.577Z,99.99
2023-03-20T00:49:59.535Z,99.99
2023-03-20T00:50:59.501Z,99.99
2023-03-20T00:51:59.487Z,99.99
2023-03-20T00:52:59.464Z,99.99
2023-03-20T00:53:59.481Z,99.99
2023-03-20T00:54:59.452Z,99.99
2023-03-20T00:55:59.343Z,99.99
2023-03-20T00:56:59.359Z,99.99
2023-03-20T00:57:59.273Z,99.99
2023-03-20T00:58:59.249Z,99.99
2023-03-20T00:59:59.275Z,99.99
2023-03-20T01:00:59.399Z,99.99
2023-03-20T01:01:59.207Z,99.99
2023-03-20T01:02:59.103Z,99.99
2023-03-20T01:03:59.059Z,99.99
2023-03-20T01:04:59.033Z,99.99
2023-03-20T01:05:59.055Z,99.99
2023-03-20T01:06:58.973Z,99.99
2023-03-20T01:07:58.920Z,99.99
2023-03-20T01:08:58.908Z,99.99
2023-03-20T01:09:58.864Z,99.99
2023-03-20T01:10:58.906Z,99.99
2023-03-20T01:11:58.804Z,99.99
2023-03-20T01:12:58.757Z,99.99
2023-03-20T01:13:58.742Z,99.99
2023-03-20T01:14:58.683Z,99.99
2023-03-20T01:15:58.687Z,99.99
2023-03-20T01:16:58.730Z,99.99
2023-03-20T01:17:58.590Z,99.99
2023-03-20T01:18:58.571Z,99.99
2023-03-20T01:19:58.593Z,99.99
2023-03-20T01:20:58.489Z,99.99
2023-03-20T01:21:58.509Z,99.99
2023-03-20T01:22:58.473Z,99.99
2023-03-20T01:23:58.394Z,99.99
2023-03-20T01:24:58.371Z,99.99
2023-03-20T01:25:58.331Z,99.99
2023-03-20T01:26:58.377Z,99.99
2023-03-20T01:27:58.245Z,99.99
2023-03-20T01:28:58.225Z,99.99
2023-03-20T01:29:58.184Z,99.99
2023-03-20T01:30:58.165Z,99.99
2023-03-20T01:31:58.436Z,99.99
2023-03-20T01:32:58.211Z,99.99
2023-03-20T01:33:58.079Z,99.99
2023-03-20T01:34:58.027Z,99.99
2023-03-20T01:35:58.100Z,99.99
2023-03-20T01:36:58.020Z,99.99
2023-03-20T01:37:57.933Z,99.99
2023-03-20T01:38:57.884Z,99.99
2023-03-20T01:39:57.861Z,99.99
2023-03-20T01:40:57.813Z,99.99
2023-03-20T01:41:57.856Z,99.99
2023-03-20T01:42:57.749Z,99.99
2023-03-20T01:43:57.726Z,99.99
2023-03-20T01:44:57.696Z,99.99
2023-03-20T01:45:57.695Z,99.99
2023-03-20T01:46:57.676Z,99.99
2023-03-20T01:47:57.583Z,99.99
2023-03-20T01:48:57.564Z,99.99
2023-03-20T01:49:57.506Z,99.99
2023-03-20T01:50:57.483Z,99.99
2023-03-20T01:51:57.520Z,99.99
2023-03-20T01:52:57.414Z,99.99
2023-03-20T01:53:57.383Z,99.99
2023-03-20T01:54:57.352Z,99.99
2023-03-20T01:55:57.320Z,99.99
2023-03-20T01:56:57.348Z,99.99
2023-03-20T01:57:57.256Z,99.99
2023-03-20T01:58:57.239Z,99.99
2023-03-20T01:59:57.182Z,99.99
2023-03-20T02:00:57.185Z,99.99
2023-03-20T02:01:57.164Z,99.99
2023-03-20T02:02:57.080Z,99.99
2023-03-20T02:03:57.044Z,99.99
2023-03-20T02:04:57.132Z,99.99
2023-03-20T02:05:56.979Z,99.99
2023-03-20T02:06:57.038Z,99.99
2023-03-20T02:07:56.911Z,99.99
2023-03-20T02:08:56.886Z,99.99
2023-03-20T02:09:56.855Z,99.99
2023-03-20T02:10:56.808Z,99.99
2023-03-20T02:11:56.781Z,99.99
2023-03-20T02:12:56.809Z,99.99
2023-03-20T02:13:56.711Z,99.99
2023-03-20T02:14:56.711Z,99.99
2023-03-20T02:15:56.648Z,99.99
2023-03-20T02:16:56.653Z,99.99
2023-03-20T02:17:56.661Z,99.99
2023-03-20T02:18:56.561Z,99.99
2023-03-20T02:19:56.537Z,99.99
2023-03-20T02:20:56.499Z,99.99
2023-03-20T02:21:56.462Z,99.99
2023-03-20T02:22:56.403Z,99.99
2023-03-20T02:23:56.443Z,99.99
2023-03-20T02:24:56.338Z,99.99
2023-03-20T02:25:56.318Z,99.99
2023-03-20T02:26:56.286Z,99.99
2023-03-20T02:27:56.252Z,99.99
2023-03-20T02:28:56.246Z,99.99
2023-03-20T02:29:56.249Z,99.99
2023-03-20T02:30:56.161Z,99.99
2023-03-20T02:31:56.111Z,99.99
2023-03-20T02:32:56.184Z,99.99
2023-03-20T02:33:56.046Z,99.99
2023-03-20T02:34:56.015Z,99.99
2023-03-20T02:35:56.008Z,99.99
2023-03-20T02:36:55.966Z,99.99
2023-03-20T02:37:55.914Z,99.99
2023-03-20T02:38:55.946Z,99.99
2023-03-20T02:39:55.858Z,99.99
2023-03-20T02:40:55.803Z,99.99
2023-03-20T02:41:55.776Z,99.99
2023-03-20T02:42:55.742Z,99.99
2023-03-20T02:43:55.779Z,99.99
2023-03-20T02:44:55.681Z,99.99
2023-03-20T02:45:55.664Z,99.99
2023-03-20T02:46:55.620Z,99.99
2023-03-20T02:47:55.577Z,99.99
2023-03-20T02:48:55.571Z,99.99
2023-03-20T02:49:55.561Z,99.99
2023-03-20T02:50:55.475Z,99.99
2023-03-20T02:51:55.452Z,99.99
2023-03-20T02:52:55.423Z,99.99
2023-03-20T02:53:55.374Z,99.99
2023-03-20T02:54:55.407Z,99.99
2023-03-20T02:55:55.326Z,99.99
2023-03-20T02:56:55.350Z,99.99
2023-03-20T02:57:55.243Z,99.99
2023-03-20T02:58:55.203Z,99.99
2023-03-20T02:59:55.283Z,99.99
2023-03-20T03:00:55.130Z,99.99
2023-03-20T03:01:55.150Z,99.99
2023-03-20T03:02:55.111Z,99.99
2023-03-20T03:03:55.039Z,99.99
2023-03-20T03:04:55.002Z,99.99
2023-03-20T03:05:55.077Z,99.99
2023-03-20T03:06:54.945Z,99.99
2023-03-20T03:07:54.968Z,99.99
2023-03-20T03:08:54.918Z,99.99
2023-03-20T03:09:54.918Z,99.99
2023-03-20T03:10:54.801Z,99.99
2023-03-20T03:11:54.858Z,99.99
2023-03-20T03:12:54.738Z,99.99
2023-03-20T03:13:54.698Z,99.99
2023-03-20T03:14:54.684Z,99.99
2023-03-20T03:15:54.692Z,99.99
2023-03-20T03:16:54.593Z,99.99
2023-03-20T03:17:54.736Z,99.99
2023-03-20T03:18:54.578Z,99.99
2023-03-20T03:19:54.517Z,99.99
2023-03-20T03:20:54.475Z,99.99
2023-03-20T03:21:54.476Z,99.99
2023-03-20T03:22:54.417Z,99.99
2023-03-20T03:23:54.457Z,99.99
2023-03-20T03:24:54.363Z,99.99
2023-03-20T03:25:54.322Z,99.99
2023-03-20T03:26:54.277Z,99.99
2023-03-20T03:27:54.248Z,99.99
2023-03-20T03:28:54.211Z,99.99
2023-03-20T03:29:54.300Z,99.99
2023-03-20T03:30:54.176Z,99.99
2023-03-20T03:31:54.120Z,99.99
2023-03-20T03:32:54.107Z,99.99
2023-03-20T03:33:54.057Z,99.99
2023-03-20T03:34:54.045Z,99.99
2023-03-20T03:35:54.083Z,99.99
2023-03-20T03:36:53.938Z,99.99
2023-03-20T03:37:53.903Z,99.99
2023-03-20T03:38:53.910Z,99.99
2023-03-20T03:39:53.829Z,99.99
2023-03-20T03:40:53.801Z,99.99
2023-03-20T03:41:53.856Z,99.99
2023-03-20T03:42:53.726Z,99.99
2023-03-20T03:43:53.690Z,99.99
2023-03-20T03:44:53.669Z,99.99
2023-03-20T03:45:53.628Z,99.99
2023-03-20T03:46:53.764Z,99.99
2023-03-20T03:47:53.627Z,99.99
2023-03-20T03:48:53.528Z,99.99
2023-03-20T03:49:53.508Z,99.99
2023-03-20T03:50:53.477Z,99.99
2023-03-20T03:51:53.466Z,99.99
2023-03-20T03:52:53.402Z,99.99
2023-03-20T03:53:53.429Z,99.99
2023-03-20T03:54:53.339Z,99.99
2023-03-20T03:55:53.363Z,99.99
2023-03-20T03:56:53.251Z,99.99
2023-03-20T03:57:53.216Z,99.99
2023-03-20T03:58:53.204Z,99.99
2023-03-20T03:59:53.225Z,99.99
2023-03-20T04:00:53.123Z,99.99
2023-03-20T04:01:53.232Z,99.99
2023-03-20T04:02:53.082Z,99.99
2023-03-20T04:03:53.038Z,99.99
2023-03-20T04:04:53.106Z,99.99
2023-03-20T04:05:52.973Z,99.99
2023-03-20T04:06:52.948Z,99.99
2023-03-20T04:07:52.930Z,99.99
2023-03-20T04:08:52.912Z,99.99
2023-03-20T04:09:52.842Z,99.99
2023-03-20T04:10:52.861Z,99.99
2023-03-20T04:11:52.758Z,99.99
2023-03-20T04:12:52.731Z,99.99
2023-03-20T04:13:52.716Z,99.99
2023-03-20T04:14:52.747Z,99.99
2023-03-20T04:15:52.676Z,99.99
2023-03-20T04:16:52.672Z,99.99
2023-03-20T04:17:52.574Z,99.99
2023-03-20T04:18:52.550Z,99.99
2023-03-20T04:19:52.503Z,99.99
2023-03-20T04:20:52.462Z,99.99
2023-03-20T04:21:52.432Z,99.99
2023-03-20T04:22:52.467Z,99.99
2023-03-20T04:23:52.378Z,99.99
2023-03-20T04:24:52.340Z,99.99
2023-03-20T04:25:52.295Z,99.99
2023-03-20T04:26:52.254Z,99.99
2023-03-20T04:27:52.237Z,99.99
2023-03-20T04:28:52.262Z,99.99
2023-03-20T04:29:52.154Z,99.99
2023-03-20T04:30:52.123Z,99.99
2023-03-20T04:31:52.200Z,99.99
2023-03-20T04:32:52.082Z,99.99
2023-03-20T04:33:52.062Z,99.99
2023-03-20T04:34:52.072Z,99.99
2023-03-20T04:35:52.030Z,99.99
2023-03-20T04:36:51.942Z,99.99
2023-03-20T04:37:51.902Z,99.99
2023-03-20T04:38:51.859Z,99.99
2023-03-20T04:39:51.867Z,99.99
2023-03-20T04:40:51.906Z,99.99
2023-03-20T04:41:51.764Z,99.99
2023-03-20T04:42:51.728Z,99.99
2023-03-20T04:43:51.691Z,99.99
2023-03-20T04:44:51.670Z,99.99
2023-03-20T04:45:51.677Z,99.99
2023-03-20T04:46:51.662Z,99.99
2023-03-20T04:47:51.573Z,99.99
2023-03-20T04:48:51.528Z,99.99
2023-03-20T04:49:51.521Z,99.99
2023-03-20T04:50:51.529Z,99.99
2023-03-20T04:51:51.545Z,99.99
2023-03-20T04:52:51.404Z,99.99
2023-03-20T04:53:51.370Z,99.99
2023-03-20T04:54:51.316Z,99.99
2023-03-20T04:55:51.304Z,99.99
2023-03-20T04:56:51.258Z,99.99
2023-03-20T04:57:51.328Z,99.99
2023-03-20T04:58:51.191Z,99.99
2023-03-20T04:59:51.142Z,99.99
2023-03-20T05:00:51.197Z,99.99
2023-03-20T05:01:51.082Z,99.99
2023-03-20T05:02:51.075Z,99.99
2023-03-20T05:03:51.106Z,99.99
2023-03-20T05:04:50.994Z,99.99
2023-03-20T05:05:51.004Z,99.99
2023-03-20T05:06:50.931Z,99.99
2023-03-20T05:07:50.899Z,99.99
2023-03-20T05:08:50.870Z,99.99
2023-03-20T05:09:50.888Z,99.99
2023-03-20T05:10:50.799Z,99.99
2023-03-20T05:11:50.869Z,99.99
2023-03-20T05:12:50.717Z,99.99
2023-03-20T05:13:50.698Z,99.99
2023-03-20T05:14:50.666Z,99.99
2023-03-20T05:15:50.671Z,99.99
2023-03-20T05:16:50.643Z,99.99
2023-03-20T05:17:51.778Z,99.99
2023-03-20T05:18:50.539Z,99.99
2023-03-20T05:19:50.496Z,99.99
2023-03-20T05:20:50.449Z,99.99
2023-03-20T05:21:50.478Z,99.99
2023-03-20T05:22:50.407Z,99.99
2023-03-20T05:23:50.362Z,99.99
2023-03-20T05:24:50.356Z,99.99
2023-03-20T05:25:50.294Z,99.99
2023-03-20T05:26:50.406Z,99.99
2023-03-20T05:27:50.432Z,99.99
2023-03-20T05:28:50.336Z,99.99
2023-03-20T05:29:50.164Z,99.99
2023-03-20T05:30:50.269Z,99.99
2023-03-20T05:31:50.213Z,99.99
2023-03-20T05:32:50.241Z,99.99
2023-03-20T05:33:50.005Z,99.99
2023-03-20T05:34:50.090Z,99.99
2023-03-20T05:35:49.986Z,99.99
2023-03-20T05:36:49.928Z,99.99
2023-03-20T05:37:49.902Z,99.99
2023-03-20T05:38:49.922Z,99.99
2023-03-20T05:39:49.879Z,99.99
2023-03-20T05:40:49.825Z,99.99
2023-03-20T05:41:49.827Z,99.99
2023-03-20T05:42:49.765Z,99.99
2023-03-20T05:43:49.706Z,99.99
2023-03-20T05:44:49.744Z,99.99
2023-03-20T05:45:49.707Z,99.99
2023-03-20T05:46:49.666Z,99.99
2023-03-20T05:47:49.545Z,99.99
2023-03-20T05:48:49.503Z,99.99
2023-03-20T05:49:49.498Z,99.99
2023-03-20T05:50:49.451Z,99.99
2023-03-20T05:51:49.454Z,99.99
2023-03-20T05:52:49.455Z,99.99
2023-03-20T05:53:49.332Z,99.99
2023-03-20T05:54:49.307Z,99.99
2023-03-20T05:55:49.275Z,99.99
2023-03-20T05:56:49.264Z,99.99
2023-03-20T05:57:49.264Z,99.99
2023-03-20T05:58:49.174Z,99.99
2023-03-20T05:59:49.144Z,99.99
2023-03-20T06:00:49.093Z,99.99
2023-03-20T06:01:49.069Z,99.99
2023-03-20T06:02:49.065Z,99.99
2023-03-20T06:03:49.122Z,99.99
2023-03-20T06:04:48.966Z,99.99
2023-03-20T06:05:48.946Z,99.99
2023-03-20T06:06:48.908Z,99.99
2023-03-20T06:07:48.921Z,99.99
2023-03-20T06:08:48.902Z,99.99
2023-03-20T06:09:48.836Z,99.99
2023-03-20T06:10:48.768Z,99.99
2023-03-20T06:11:48.734Z,99.99
2023-03-20T06:12:48.700Z,99.99
2023-03-20T06:13:48.735Z,99.99
2023-03-20T06:14:48.632Z,99.99
2023-03-20T06:15:48.610Z,99.99
2023-03-20T06:16:48.565Z,99.99
2023-03-20T06:17:48.527Z,99.99
2023-03-20T06:18:48.497Z,99.99
2023-03-20T06:19:48.538Z,99.99
2023-03-20T06:20:48.456Z,99.99
2023-03-20T06:21:48.405Z,99.99
2023-03-20T06:22:48.369Z,99.99
2023-03-20T06:23:48.334Z,99.99
2023-03-20T06:24:48.302Z,99.99
2023-03-20T06:25:48.330Z,99.99
2023-03-20T06:26:48.245Z,99.99
2023-03-20T06:27:48.197Z,99.99
2023-03-20T06:28:48.232Z,99.99
2023-03-20T06:29:48.149Z,99.99
2023-03-20T06:30:48.114Z,99.99
2023-03-20T06:31:48.056Z,99.99
2023-03-20T06:32:48.063Z,99.99
2023-03-20T06:33:48.073Z,99.99
2023-03-20T06:34:47.963Z,99.99
2023-03-20T06:35:47.935Z,99.99
2023-03-20T06:36:47.884Z,99.99
2023-03-20T06:37:47.863Z,99.99
2023-03-20T06:38:47.817Z,99.99
2023-03-20T06:39:47.855Z,99.99
2023-03-20T06:40:47.753Z,99.99
2023-03-20T06:41:47.728Z,99.99
2023-03-20T06:42:47.692Z,99.99
2023-03-20T06:43:47.661Z,99.99
2023-03-20T06:44:47.700Z,99.99
2023-03-20T06:45:47.588Z,99.99
2023-03-20T06:46:47.681Z,99.99
2023-03-20T06:47:47.518Z,99.99
2023-03-20T06:48:47.481Z,99.99
2023-03-20T06:49:47.503Z,99.99
2023-03-20T06:50:47.404Z,99.99
2023-03-20T06:51:47.380Z,99.99
2023-03-20T06:52:47.347Z,99.99
2023-03-20T06:53:47.309Z,99.99
2023-03-20T06:54:47.349Z,99.99
2023-03-20T06:55:47.257Z,99.99
2023-03-20T06:56:47.207Z,99.99
2023-03-20T06:57:47.202Z,99.99
2023-03-20T06:58:47.153Z,99.99
2023-03-20T06:59:47.102Z,99.99
2023-03-20T07:00:47.141Z,99.99
2023-03-20T07:01:47.058Z,99.99
2023-03-20T07:02:47.015Z,99.99
2023-03-20T07:03:46.976Z,99.99
2023-03-20T07:04:47.016Z,99.99
2023-03-20T07:05:46.924Z,99.99
2023-03-20T07:06:46.940Z,99.99
2023-03-20T07:07:46.842Z,99.99
2023-03-20T07:08:46.810Z,99.99
2023-03-20T07:09:46.779Z,99.99
2023-03-20T07:10:46.754Z,99.99
2023-03-20T07:11:46.717Z,99.99
2023-03-20T07:12:46.748Z,99.99
2023-03-20T07:13:49.702Z,99.80
2023-03-20T07:14:47.414Z,99.99
2023-03-20T07:16:03.103Z,99.70
2023-03-20T07:16:46.648Z,99.76
2023-03-20T07:17:46.514Z,99.86
2023-03-20T07:18:46.532Z,99.66
2023-03-20T07:19:46.441Z,98.79
2023-03-20T07:20:46.408Z,99.10
2023-03-20T07:21:46.394Z,98.53
2023-03-20T07:22:46.343Z,98.49
2023-03-20T07:23:46.313Z,98.18
2023-03-20T07:24:47.369Z,97.72
2023-03-20T07:25:46.428Z,97.82
2023-03-20T07:26:46.222Z,97.16
2023-03-20T07:27:46.186Z,97.37
2023-03-20T07:28:46.148Z,96.14
2023-03-20T07:29:46.115Z,96.00
2023-03-20T07:30:46.154Z,95.34
2023-03-20T07:31:46.084Z,94.27
2023-03-20T07:32:46.035Z,93.76
2023-03-20T07:33:45.978Z,93.10
2023-03-20T07:34:45.949Z,93.57
2023-03-20T07:35:45.962Z,92.45
2023-03-20T07:36:45.998Z,92.55
2023-03-20T07:37:45.858Z,91.83
2023-03-20T07:38:45.822Z,91.28
2023-03-20T07:39:45.787Z,91.63
2023-03-20T07:40:45.754Z,91.16
2023-03-20T07:41:45.733Z,91.92
2023-03-20T07:42:45.755Z,92.74
2023-03-20T07:43:45.694Z,92.84
2023-03-20T07:44:45.635Z,92.84
2023-03-20T07:45:45.616Z,92.84
2023-03-20T07:46:45.552Z,92.78
2023-03-20T07:47:45.597Z,93.50
2023-03-20T07:48:45.552Z,92.99
2023-03-20T07:49:45.457Z,93.40
2023-03-20T07:50:45.437Z,93.25
2023-03-20T07:51:45.392Z,93.25
2023-03-20T07:52:45.375Z,93.05
2023-03-20T07:53:45.351Z,92.84
2023-03-20T07:54:45.433Z,92.99
2023-03-20T07:55:45.282Z,93.29
2023-03-20T07:56:45.290Z,93.19
2023-03-20T07:57:45.207Z,93.55
2023-03-20T07:58:45.170Z,93.19
2023-03-20T07:59:45.210Z,93.70
2023-03-20T08:00:45.115Z,93.40
2023-03-20T08:01:45.086Z,93.35
2023-03-20T08:02:45.257Z,92.74
2023-03-20T08:03:45.091Z,92.84
2023-03-20T08:04:45.066Z,92.54
2023-03-20T08:05:47.327Z,92.74
2023-03-20T08:06:44.915Z,92.54
2023-03-20T08:07:44.886Z,92.64
2023-03-20T08:08:44.842Z,91.72
2023-03-20T08:09:44.825Z,91.92
2023-03-20T08:10:44.928Z,91.92
2023-03-20T08:11:44.793Z,91.72
2023-03-20T08:12:44.850Z,91.67
2023-03-20T08:13:44.687Z,91.06
2023-03-20T08:14:44.657Z,91.82
2023-03-20T08:15:44.640Z,91.31
2023-03-20T08:16:44.704Z,91.16
2023-03-20T08:17:44.567Z,91.61
2023-03-20T08:18:44.543Z,92.29
2023-03-20T08:19:44.510Z,91.57
2023-03-20T08:20:44.477Z,91.06
2023-03-20T08:21:44.452Z,90.92
2023-03-20T08:22:44.464Z,90.51
2023-03-20T08:23:44.383Z,89.65
2023-03-20T08:24:44.334Z,89.92
2023-03-20T08:25:44.351Z,88.34
2023-03-20T08:26:44.402Z,88.20
2023-03-20T08:27:44.246Z,87.59
2023-03-20T08:28:47.917Z,87.29
2023-03-20T08:29:44.188Z,86.94
2023-03-20T08:30:44.204Z,86.02
2023-03-20T08:31:44.123Z,86.43
2023-03-20T08:32:44.126Z,86.59
2023-03-20T08:33:44.052Z,86.08
2023-03-20T08:34:44.090Z,85.58
2023-03-20T08:35:44.225Z,86.29
2023-03-20T08:36:43.963Z,85.47
2023-03-20T08:37:43.938Z,85.58
2023-03-20T08:38:43.900Z,85.41
2023-03-20T08:39:43.870Z,85.37
2023-03-20T08:40:43.907Z,85.61
2023-03-20T08:41:43.814Z,85.37
2023-03-20T08:42:43.800Z,85.47
2023-03-20T08:43:44.321Z,85.27
2023-03-20T08:44:43.720Z,84.56
2023-03-20T08:45:43.731Z,83.20
2023-03-20T08:46:43.713Z,83.50
2023-03-20T08:47:43.626Z,83.81
2023-03-20T08:48:43.631Z,83.70
2023-03-20T08:49:43.567Z,83.84
2023-03-20T08:50:43.532Z,83.54
2023-03-20T08:51:43.509Z,83.34
2023-03-20T08:52:43.539Z,83.23
2023-03-20T08:53:43.548Z,83.95
2023-03-20T08:54:43.415Z,83.95
2023-03-20T08:55:43.380Z,84.05
2023-03-20T08:56:43.351Z,82.82
2023-03-20T08:57:43.331Z,83.48
2023-03-20T08:58:43.330Z,83.89
2023-03-20T08:59:43.261Z,82.46
2023-03-20T09:00:43.222Z,82.97
2023-03-20T09:01:49.638Z,84.19
2023-03-20T09:02:43.217Z,83.48
2023-03-20T09:03:43.148Z,82.56
2023-03-20T09:04:43.166Z,82.76
2023-03-20T09:05:43.066Z,82.52
2023-03-20T09:06:43.048Z,82.82
2023-03-20T09:07:43.020Z,82.32
2023-03-20T09:08:42.984Z,82.59
2023-03-20T09:09:42.962Z,82.28
2023-03-20T09:10:42.960Z,81.23
2023-03-20T09:11:42.887Z,80.62
2023-03-20T09:12:42.856Z,80.72
2023-03-20T09:13:42.825Z,80.78
2023-03-20T09:14:42.791Z,80.33
2023-03-20T09:15:42.774Z,79.38
2023-03-20T09:16:42.779Z,79.04
2023-03-20T09:17:42.712Z,78.13
2023-03-20T09:18:42.665Z,77.52
2023-03-20T09:19:42.641Z,76.34
2023-03-20T09:20:42.605Z,76.98
2023-03-20T09:21:42.579Z,77.19
2023-03-20T09:22:42.611Z,77.05
2023-03-20T09:23:42.522Z,75.22
2023-03-20T09:24:42.485Z,75.05
2023-03-20T09:25:42.461Z,75.26
2023-03-20T09:26:42.427Z,75.26
2023-03-20T09:27:42.401Z,75.43
2023-03-20T09:28:42.442Z,75.63
2023-03-20T09:29:42.370Z,75.12
2023-03-20T09:30:42.308Z,75.87
2023-03-20T09:31:42.279Z,75.87
2023-03-20T09:32:42.357Z,75.56
2023-03-20T09:33:42.225Z,75.97
2023-03-20T09:34:42.249Z,75.56
2023-03-20T09:35:43.619Z,75.60
2023-03-20T09:36:42.128Z,76.45
2023-03-20T09:37:42.099Z,76.75
2023-03-20T09:38:42.078Z,77.06
2023-03-20T09:39:42.057Z,77.16
2023-03-20T09:40:42.058Z,76.65
2023-03-20T09:41:55.949Z,77.06
2023-03-20T09:42:41.944Z,76.65
2023-03-20T09:43:41.942Z,76.95
2023-03-20T09:44:41.911Z,77.67
2023-03-20T09:45:41.861Z,77.16
2023-03-20T09:46:41.920Z,78.11
2023-03-20T09:47:41.804Z,78.31
2023-03-20T09:48:41.768Z,78.31
2023-03-20T09:49:41.731Z,78.52
2023-03-20T09:50:41.708Z,78.11
2023-03-20T09:51:41.686Z,78.35
2023-03-20T09:52:41.697Z,78.72
2023-03-20T09:53:41.611Z,78.11
2023-03-20T09:54:53.593Z,78.62
2023-03-20T09:55:41.696Z,78.72
2023-03-20T09:56:41.540Z,78.01
2023-03-20T09:57:41.489Z,77.29
2023-03-20T09:58:41.516Z,77.70
2023-03-20T09:59:41.435Z,77.20
2023-03-20T10:00:41.400Z,77.40
2023-03-20T10:01:41.399Z,77.29
2023-03-20T10:02:41.351Z,77.40
2023-03-20T10:03:41.314Z,77.81
2023-03-20T10:04:41.351Z,77.60
2023-03-20T10:05:41.249Z,77.20
2023-03-20T10:06:41.237Z,77.20
2023-03-20T10:07:41.188Z,76.95
2023-03-20T10:08:41.148Z,76.48
2023-03-20T10:09:41.117Z,76.95
2023-03-20T10:10:41.174Z,76.65
2023-03-20T10:11:41.062Z,76.95
2023-03-20T10:12:41.052Z,76.04
2023-03-20T10:13:40.998Z,76.55
2023-03-20T10:14:40.976Z,75.80
2023-03-20T10:15:40.941Z,76.21
2023-03-20T10:16:41.012Z,76.51
2023-03-20T10:17:40.879Z,76.01
2023-03-20T10:18:40.863Z,76.51
2023-03-20T10:19:40.812Z,76.51
2023-03-20T10:20:40.882Z,75.76
2023-03-20T10:21:40.751Z,75.26
2023-03-20T10:22:40.776Z,75.43
2023-03-20T10:23:40.706Z,75.43
2023-03-20T10:24:40.666Z,74.92
2023-03-20T10:25:40.634Z,75.63
2023-03-20T10:26:40.689Z,74.21
2023-03-20T10:27:40.582Z,74.62
2023-03-20T10:28:40.600Z,75.43
2023-03-20T10:29:40.513Z,75.73
2023-03-20T10:30:40.484Z,75.22
2023-03-20T10:31:40.486Z,75.36
2023-03-20T10:32:40.444Z,76.68
2023-03-20T10:33:40.415Z,76.28
2023-03-20T10:34:40.425Z,76.61
2023-03-20T10:35:40.486Z,75.80
2023-03-20T10:36:40.299Z,76.45
2023-03-20T10:37:40.273Z,77.12
2023-03-20T10:38:40.238Z,76.61
2023-03-20T10:39:40.212Z,76.01
2023-03-20T10:40:40.232Z,76.04
2023-03-20T10:41:40.157Z,76.45
2023-03-20T10:42:40.130Z,76.65
2023-03-20T10:43:43.082Z,76.86
2023-03-20T10:44:40.097Z,77.16
2023-03-20T10:45:40.052Z,76.86
2023-03-20T10:46:40.126Z,77.47
2023-03-20T10:47:40.035Z,77.67
2023-03-20T10:48:40.005Z,77.87
2023-03-20T10:49:39.924Z,77.97
2023-03-20T10:50:39.907Z,78.08
2023-03-20T10:51:39.868Z,78.11
2023-03-20T10:52:39.937Z,78.08
2023-03-20T10:53:39.792Z,78.62
2023-03-20T10:54:39.749Z,79.33
2023-03-20T10:55:39.725Z,79.27
2023-03-20T10:56:39.682Z,79.23
2023-03-20T10:57:39.665Z,78.96
2023-03-20T10:58:39.692Z,78.35
2023-03-20T10:59:39.599Z,78.66
2023-03-20T11:00:39.616Z,78.25
2023-03-20T11:01:39.535Z,78.45
2023-03-20T11:02:39.512Z,78.05
2023-03-20T11:03:39.534Z,78.45
2023-03-20T11:04:39.446Z,78.72
2023-03-20T11:05:39.477Z,77.81
2023-03-20T11:06:39.384Z,78.31
2023-03-20T11:07:39.354Z,78.31
2023-03-20T11:08:39.337Z,77.84
2023-03-20T11:09:39.362Z,78.11
2023-03-20T11:10:39.309Z,78.52
2023-03-20T11:11:39.232Z,78.11
2023-03-20T11:12:39.209Z,78.86
2023-03-20T11:13:39.166Z,78.41
2023-03-20T11:14:39.162Z,78.35
2023-03-20T11:15:39.180Z,78.11
2023-03-20T11:16:39.173Z,77.40
2023-03-20T11:17:39.041Z,77.36
2023-03-20T11:18:39.079Z,76.51
2023-03-20T11:19:38.996Z,75.56
2023-03-20T11:20:38.955Z,75.63
2023-03-20T11:21:38.980Z,75.22
2023-03-20T11:22:38.908Z,74.17
2023-03-20T11:23:38.863Z,74.04
2023-03-20T11:24:38.834Z,73.43
2023-03-20T11:25:38.816Z,73.90
2023-03-20T11:26:38.825Z,73.12
2023-03-20T11:27:38.738Z,73.43
2023-03-20T11:28:38.718Z,73.63
2023-03-20T11:29:38.683Z,73.57
2023-03-20T11:30:38.660Z,73.57
2023-03-20T11:31:38.655Z,73.39
2023-03-20T11:32:38.697Z,74.10
2023-03-20T11:33:38.581Z,74.31
2023-03-20T11:34:38.533Z,73.80
2023-03-20T11:35:38.603Z,74.55
2023-03-20T11:36:38.469Z,74.31
2023-03-20T11:37:38.484Z,75.46
2023-03-20T11:38:38.464Z,74.55
2023-03-20T11:39:38.412Z,73.74
2023-03-20T11:40:38.577Z,74.04
2023-03-20T11:41:40.718Z,73.97
2023-03-20T11:42:38.294Z,74.99
2023-03-20T11:43:38.262Z,75.09
2023-03-20T11:44:38.268Z,74.38
2023-03-20T11:45:38.258Z,74.82
2023-03-20T11:46:38.159Z,74.58
2023-03-20T11:47:38.161Z,74.38
2023-03-20T11:48:38.113Z,74.75
2023-03-20T11:49:38.067Z,73.83
2023-03-20T11:50:38.315Z,74.14
2023-03-20T11:51:38.034Z,74.24
2023-03-20T11:52:37.993Z,74.34
2023-03-20T11:53:37.948Z,74.04
2023-03-20T11:54:37.919Z,74.18
2023-03-20T11:55:37.940Z,74.34
2023-03-20T11:56:37.857Z,74.04
2023-03-20T11:57:37.834Z,74.18
2023-03-20T11:58:37.807Z,74.28
2023-03-20T11:59:37.773Z,74.38
2023-03-20T12:00:38.107Z,74.58
2023-03-20T12:01:37.709Z,74.85
2023-03-20T12:02:37.723Z,74.95
2023-03-20T12:03:37.692Z,74.41
2023-03-20T12:04:37.685Z,74.10
2023-03-20T12:05:37.693Z,74.41
2023-03-20T12:06:37.560Z,74.10
2023-03-20T12:07:37.532Z,73.90
2023-03-20T12:08:37.524Z,74.31
2023-03-20T12:09:37.472Z,74.21
2023-03-20T12:10:37.690Z,74.41
2023-03-20T12:11:37.485Z,74.34
2023-03-20T12:12:37.384Z,74.65
2023-03-20T12:13:37.341Z,74.65
2023-03-20T12:14:37.317Z,74.44
2023-03-20T12:15:37.376Z,74.41
2023-03-20T12:16:37.265Z,74.82
2023-03-20T12:17:37.302Z,75.49
2023-03-20T12:18:37.197Z,74.17
2023-03-20T12:19:37.165Z,73.93
2023-03-20T12:20:37.574Z,72.89
2023-03-20T12:21:37.334Z,71.57
2023-03-20T12:22:37.070Z,72.17
2023-03-20T12:23:37.119Z,71.06
2023-03-20T12:24:37.038Z,71.94
2023-03-20T12:25:36.980Z,71.64
2023-03-20T12:26:36.984Z,72.21
2023-03-20T12:27:36.955Z,71.30
2023-03-20T12:28:36.890Z,70.05
2023-03-20T12:29:37.019Z,69.44
2023-03-20T12:30:37.115Z,69.14
2023-03-20T12:31:36.882Z,69.78
2023-03-20T12:32:36.821Z,69.98
2023-03-20T12:33:36.872Z,70.08
2023-03-20T12:34:36.739Z,69.98
2023-03-20T12:35:36.841Z,70.08
2023-03-20T12:36:36.659Z,69.98
2023-03-20T12:37:36.644Z,69.68
2023-03-20T12:38:36.615Z,69.78
2023-03-20T12:39:36.577Z,69.81
2023-03-20T12:40:37.030Z,70.56
2023-03-20T12:41:36.532Z,71.60
2023-03-20T12:42:36.483Z,72.01
2023-03-20T12:43:36.464Z,72.28
2023-03-20T12:44:36.439Z,72.48
2023-03-20T12:45:36.409Z,72.99
2023-03-20T12:46:36.466Z,73.80
2023-03-20T12:47:36.401Z,73.80
2023-03-20T12:48:36.306Z,74.01
2023-03-20T12:49:36.277Z,73.74
2023-03-20T12:50:36.664Z,73.94
2023-03-20T12:51:36.227Z,73.74